Yang Mei Hu — BQCG — position and weather

sailwx.info

Track history (hours):
 
Tides and Currents Weather Stations Pressure Air Temp Water Temp Dewpoint Dewpoint Depression Visibility Wind Speed Wind Dir Waves Ship Positions

Yang Mei Hu

Last reported at 2014-Oct-20 21:33 UTC. Time now 2014-Oct-31 13:04 UTC.
Position N 34°27' E 033°17'.
Warning: this ship's position is 10 days out of date.

Length 245 m; draft 14.7 m.

Type: Tanker. MMSI: 413858000.

Date/timePositionNaut miles runAvg speedWind from/ knotsBaromVisibWave heightAir tempDewpointWater temp
2014-Oct-20 21:33N 34°27' E 033°17'2 2.5
2014-Oct-20 20:33N 34°30' E 033°18'0 0.4
2014-Oct-20 19:33N 34°30' E 033°17'1 0.6
2014-Oct-20 18:34N 34°29' E 033°17'4 2.7
2014-Oct-20 17:13N 34°30' E 033°21'2 3.3
2014-Oct-20 16:33N 34°30' E 033°24'2 2.0
2014-Oct-20 15:33N 34°30' E 033°26'1 0.8
2014-Oct-20 14:33N 34°30' E 033°25'1 0.6
2014-Oct-20 13:34N 34°30' E 033°25'2 2.4
2014-Oct-20 12:34N 34°27' E 033°24'14 4.0
2014-Oct-20 09:07N 34°20' E 033°11'2 3.4
2014-Oct-20 08:29N 34°19' E 033°08'1 0.7
2014-Oct-20 07:33N 34°19' E 033°09'1 0.6
2014-Oct-20 06:33N 34°19' E 033°09'21 0.5
2014-Oct-18 15:05N 34°31' E 033°29'1 1.9
2014-Oct-18 14:28N 34°31' E 033°28'2 1.9
2014-Oct-18 13:32N 34°31' E 033°26'2 1.6
2014-Oct-18 12:33N 34°31' E 033°24'1 1.5
2014-Oct-18 11:33N 34°30' E 033°22'1 1.3
2014-Oct-18 10:33N 34°30' E 033°21'2 1.6
2014-Oct-18 09:33N 34°29' E 033°19'2 2.0
2014-Oct-18 08:33N 34°30' E 033°17'2 1.7
2014-Oct-18 07:33N 34°28' E 033°16'1 1.1
2014-Oct-18 06:33N 34°28' E 033°15'1 1.2
2014-Oct-18 05:19N 34°26' E 033°14'3 3.5
2014-Oct-18 04:33N 34°25' E 033°11'4 4.0
2014-Oct-18 03:33N 34°23' E 033°07'1 0.9
2014-Oct-18 02:32N 34°22' E 033°06'1 1.0
2014-Oct-18 01:32N 34°21' E 033°06'1 0.9
2014-Oct-18 00:32N 34°20' E 033°05'1 0.9
2014-Oct-17 23:29N 34°20' E 033°04'1 0.9
2014-Oct-17 22:32N 34°19' E 033°03'1 0.8
2014-Oct-17 21:32N 34°19' E 033°03'2 0.8
2014-Oct-17 19:26N 34°18' E 033°01'0 0.5
2014-Oct-17 18:32N 34°18' E 033°00'8 8.3
2014-Oct-17 17:33N 34°25' E 032°58'1111.3
2014-Oct-17 16:33N 34°26' E 032°44'23212.0
2014-Oct-16 21:16N 34°29' E 028°03'2612.5
2014-Oct-16 19:10N 34°30' E 027°31'25711.8
2014-Oct-15 21:21N 34°47' E 022°19'3311.7
2014-Oct-15 18:31N 34°53' E 021°39'30111.6
2014-Oct-14 16:33N 35°46' E 015°36'1211.6
2014-Oct-14 15:33N 35°48' E 015°22'1212.0
2014-Oct-14 14:33N 35°50' E 015°08'1212.1
2014-Oct-14 13:34N 35°52' E 014°53'4 3.7
2014-Oct-14 12:30N 35°53' E 014°48'0 0.0
2014-Oct-14 11:33N 35°53' E 014°48'0 0.0
2014-Oct-14 10:33N 35°53' E 014°48'0 0.0
2014-Oct-14 09:33N 35°53' E 014°48'0 0.1
2014-Oct-14 08:33N 35°53' E 014°48'3 3.0
2014-Oct-14 07:33N 35°54' E 014°52'0 0.0
2014-Oct-13 06:06N 35°54' E 014°52'0 0.0
2014-Oct-13 05:33N 35°54' E 014°52'0 0.0
2014-Oct-13 04:33N 35°54' E 014°52'0 0.0
2014-Oct-13 03:33N 35°54' E 014°52'1 0.5
2014-Oct-13 02:34N 35°54' E 014°52'4 3.1
2014-Oct-13 01:11N 35°54' E 014°58'2 3.3
2014-Oct-13 00:29N 35°54' E 015°00'1 1.2
2014-Oct-12 23:21N 35°54' E 015°02'6 4.6
2014-Oct-12 22:08N 35°54' E 014°55'3 4.7
2014-Oct-12 21:34N 35°53' E 014°58'1010.5
2014-Oct-12 20:33N 35°54' E 015°11'1210.9
2014-Oct-12 19:26N 35°55' E 015°26'43610.3
2014-Oct-11 01:10N 37°25' E 024°17'811.8
2014-Oct-11 00:32N 37°31' E 024°23'  
Track history (hours):
 
Tides and Currents Weather Stations Pressure Air Temp Water Temp Dewpoint Dewpoint Depression Visibility Wind Speed Wind Dir Waves Ship Positions

Yang Mei Hu

Last reported at 2014-Oct-20 21:33 UTC. Time now 2014-Oct-31 13:04 UTC.
Position N 34°27' E 033°17'.
Warning: this ship's position is 10 days out of date.

Length 245 m; draft 14.7 m.

Type: Tanker. MMSI: 413858000.

Date/timePositionNaut miles runAvg speedWind from/ knotsBaromVisibWave heightAir tempDewpointWater temp
2014-Oct-20 21:33N 34°27' E 033°17'2 2.5
2014-Oct-20 20:33N 34°30' E 033°18'0 0.4
2014-Oct-20 19:33N 34°30' E 033°17'1 0.6
2014-Oct-20 18:34N 34°29' E 033°17'4 2.7
2014-Oct-20 17:13N 34°30' E 033°21'2 3.3
2014-Oct-20 16:33N 34°30' E 033°24'2 2.0
2014-Oct-20 15:33N 34°30' E 033°26'1 0.8
2014-Oct-20 14:33N 34°30' E 033°25'1 0.6
2014-Oct-20 13:34N 34°30' E 033°25'2 2.4
2014-Oct-20 12:34N 34°27' E 033°24'14 4.0
2014-Oct-20 09:07N 34°20' E 033°11'2 3.4
2014-Oct-20 08:29N 34°19' E 033°08'1 0.7
2014-Oct-20 07:33N 34°19' E 033°09'1 0.6
2014-Oct-20 06:33N 34°19' E 033°09'21 0.5
2014-Oct-18 15:05N 34°31' E 033°29'1 1.9
2014-Oct-18 14:28N 34°31' E 033°28'2 1.9
2014-Oct-18 13:32N 34°31' E 033°26'2 1.6
2014-Oct-18 12:33N 34°31' E 033°24'1 1.5
2014-Oct-18 11:33N 34°30' E 033°22'1 1.3
2014-Oct-18 10:33N 34°30' E 033°21'2 1.6
2014-Oct-18 09:33N 34°29' E 033°19'2 2.0
2014-Oct-18 08:33N 34°30' E 033°17'2 1.7
2014-Oct-18 07:33N 34°28' E 033°16'1 1.1
2014-Oct-18 06:33N 34°28' E 033°15'1 1.2
2014-Oct-18 05:19N 34°26' E 033°14'3 3.5
2014-Oct-18 04:33N 34°25' E 033°11'4 4.0
2014-Oct-18 03:33N 34°23' E 033°07'1 0.9
2014-Oct-18 02:32N 34°22' E 033°06'1 1.0
2014-Oct-18 01:32N 34°21' E 033°06'1 0.9
2014-Oct-18 00:32N 34°20' E 033°05'1 0.9
2014-Oct-17 23:29N 34°20' E 033°04'1 0.9
2014-Oct-17 22:32N 34°19' E 033°03'1 0.8
2014-Oct-17 21:32N 34°19' E 033°03'2 0.8
2014-Oct-17 19:26N 34°18' E 033°01'0 0.5
2014-Oct-17 18:32N 34°18' E 033°00'8 8.3
2014-Oct-17 17:33N 34°25' E 032°58'1111.3
2014-Oct-17 16:33N 34°26' E 032°44'23212.0
2014-Oct-16 21:16N 34°29' E 028°03'2612.5
2014-Oct-16 19:10N 34°30' E 027°31'25711.8
2014-Oct-15 21:21N 34°47' E 022°19'3311.7
2014-Oct-15 18:31N 34°53' E 021°39'30111.6
2014-Oct-14 16:33N 35°46' E 015°36'1211.6
2014-Oct-14 15:33N 35°48' E 015°22'1212.0
2014-Oct-14 14:33N 35°50' E 015°08'1212.1
2014-Oct-14 13:34N 35°52' E 014°53'4 3.7
2014-Oct-14 12:30N 35°53' E 014°48'0 0.0
2014-Oct-14 11:33N 35°53' E 014°48'0 0.0
2014-Oct-14 10:33N 35°53' E 014°48'0 0.0
2014-Oct-14 09:33N 35°53' E 014°48'0 0.1
2014-Oct-14 08:33N 35°53' E 014°48'3 3.0
2014-Oct-14 07:33N 35°54' E 014°52'0 0.0
2014-Oct-13 06:06N 35°54' E 014°52'0 0.0
2014-Oct-13 05:33N 35°54' E 014°52'0 0.0
2014-Oct-13 04:33N 35°54' E 014°52'0 0.0
2014-Oct-13 03:33N 35°54' E 014°52'1 0.5
2014-Oct-13 02:34N 35°54' E 014°52'4 3.1
2014-Oct-13 01:11N 35°54' E 014°58'2 3.3
2014-Oct-13 00:29N 35°54' E 015°00'1 1.2
2014-Oct-12 23:21N 35°54' E 015°02'6 4.6
2014-Oct-12 22:08N 35°54' E 014°55'3 4.7
2014-Oct-12 21:34N 35°53' E 014°58'1010.5
2014-Oct-12 20:33N 35°54' E 015°11'1210.9
2014-Oct-12 19:26N 35°55' E 015°26'43610.3
2014-Oct-11 01:10N 37°25' E 024°17'811.8
2014-Oct-11 00:32N 37°31' E 024°23'  

Dump ship's entire track history